CheckWX is a tool to help pilots better visualize weather data.  It is not intended as a substitute for an official pre-flight weather briefing.

08:42:25 UTC

KSGT METAR
Stuttgart Municipal Carl Humphrey Field Airport
Stuttgart, Arkansas, USA
Current

46 mins ago

KSGT 120756Z AUTO 06003KT 7SM CLR 01/M01 A3047 RMK AO2 SLP320 T00111006 FZRANO
Observed
Dec-12 @ 07:56 UTC
Wind
  • 060° at 3 KTS
Visibility
7 SM
Flight Rules
VFR
Cloud Levels
  • Clear skies
Temperature
C / 34°F
Dewpoint
-1°C / 30°F
Humidity
87%
Altimeter
30.47" Hg
Pressure
1031.82 hPa
Previous

2 hours ago

KSGT 120656Z AUTO 13004KT 10SM CLR 02/M01 A3048 RMK AO2 SLP323 T00221006 FZRANO
Observed
Dec-12 @ 06:56 UTC
Wind
  • 130° at 4 KTS
Visibility
10 SM
Flight Rules
VFR
Cloud Levels
  • Clear skies
Temperature
C / 36°F
Dewpoint
-1°C / 30°F
Humidity
81%
Altimeter
30.48" Hg
Pressure
1032.22 hPa
Previous

3 hours ago

KSGT 120556Z AUTO 15005KT 10SM CLR 03/M01 A3049 RMK AO2 SLP326 T00281006 10061 20022 401061028 58003
Observed
Dec-12 @ 05:56 UTC
Wind
  • 150° at 5 KTS
Visibility
10 SM
Flight Rules
VFR
Cloud Levels
  • Clear skies
Temperature
C / 37°F
Dewpoint
-1°C / 30°F
Humidity
75%
Altimeter
30.49" Hg
Pressure
1032.52 hPa